sensor_id;sensor_type;location;lat;lon;timestamp;temperature;humidity
7566;DHT22;3824;48.010;7.832;2023-02-02T00:01:15;7.10;99.90
7566;DHT22;3824;48.010;7.832;2023-02-02T00:03:42;5.50;99.90
7566;DHT22;3824;48.010;7.832;2023-02-02T00:06:09;5.40;99.90
7566;DHT22;3824;48.010;7.832;2023-02-02T00:08:36;5.40;99.90
7566;DHT22;3824;48.010;7.832;2023-02-02T00:11:04;5.40;99.90
7566;DHT22;3824;48.010;7.832;2023-02-02T00:13:32;5.40;99.90
7566;DHT22;3824;48.010;7.832;2023-02-02T00:16:31;5.40;99.90
7566;DHT22;3824;48.010;7.832;2023-02-02T00:19:00;5.30;99.90
7566;DHT22;3824;48.010;7.832;2023-02-02T00:21:28;5.30;99.90
7566;DHT22;3824;48.010;7.832;2023-02-02T00:23:55;5.30;99.90
7566;DHT22;3824;48.010;7.832;2023-02-02T00:26:22;5.30;99.90
7566;DHT22;3824;48.010;7.832;2023-02-02T00:28:50;5.30;99.90
7566;DHT22;3824;48.010;7.832;2023-02-02T00:31:17;5.50;99.90
7566;DHT22;3824;48.010;7.832;2023-02-02T00:33:44;6.70;99.90
7566;DHT22;3824;48.010;7.832;2023-02-02T00:36:11;5.30;99.90
7566;DHT22;3824;48.010;7.832;2023-02-02T00:38:38;5.20;99.90
7566;DHT22;3824;48.010;7.832;2023-02-02T00:41:05;5.20;99.90
7566;DHT22;3824;48.010;7.832;2023-02-02T00:43:31;5.20;99.90
7566;DHT22;3824;48.010;7.832;2023-02-02T00:46:00;5.20;99.90
7566;DHT22;3824;48.010;7.832;2023-02-02T00:48:26;5.20;99.90
7566;DHT22;3824;48.010;7.832;2023-02-02T00:50:52;6.40;99.90
7566;DHT22;3824;48.010;7.832;2023-02-02T00:53:19;5.20;99.90
7566;DHT22;3824;48.010;7.832;2023-02-02T00:55:46;5.10;99.90
7566;DHT22;3824;48.010;7.832;2023-02-02T00:58:13;5.10;99.90
7566;DHT22;3824;48.010;7.832;2023-02-02T01:00:40;5.10;99.90
7566;DHT22;3824;48.010;7.832;2023-02-02T01:03:08;5.10;99.90
7566;DHT22;3824;48.010;7.832;2023-02-02T01:05:38;5.10;99.90
7566;DHT22;3824;48.010;7.832;2023-02-02T01:08:05;5.10;99.90
7566;DHT22;3824;48.010;7.832;2023-02-02T01:10:32;5.10;99.90
7566;DHT22;3824;48.010;7.832;2023-02-02T01:12:59;5.10;99.90
7566;DHT22;3824;48.010;7.832;2023-02-02T01:15:26;5.80;99.90
7566;DHT22;3824;48.010;7.832;2023-02-02T01:17:55;5.10;99.90
7566;DHT22;3824;48.010;7.832;2023-02-02T01:20:24;5.10;99.90
7566;DHT22;3824;48.010;7.832;2023-02-02T01:22:51;5.00;99.90
7566;DHT22;3824;48.010;7.832;2023-02-02T01:25:18;5.00;99.90
7566;DHT22;3824;48.010;7.832;2023-02-02T01:27:45;5.00;99.90
7566;DHT22;3824;48.010;7.832;2023-02-02T01:30:12;5.00;99.90
7566;DHT22;3824;48.010;7.832;2023-02-02T01:32:39;5.00;99.90
7566;DHT22;3824;48.010;7.832;2023-02-02T01:35:06;5.00;99.90
7566;DHT22;3824;48.010;7.832;2023-02-02T01:37:37;5.00;99.90
7566;DHT22;3824;48.010;7.832;2023-02-02T01:40:05;5.30;99.90
7566;DHT22;3824;48.010;7.832;2023-02-02T01:42:33;5.00;99.90
7566;DHT22;3824;48.010;7.832;2023-02-02T01:45:17;5.00;99.90
7566;DHT22;3824;48.010;7.832;2023-02-02T01:47:48;5.00;99.90
7566;DHT22;3824;48.010;7.832;2023-02-02T01:50:16;5.00;99.90
7566;DHT22;3824;48.010;7.832;2023-02-02T01:52:47;5.00;99.90
7566;DHT22;3824;48.010;7.832;2023-02-02T01:55:17;5.00;99.90
7566;DHT22;3824;48.010;7.832;2023-02-02T01:57:50;5.20;99.90
7566;DHT22;3824;48.010;7.832;2023-02-02T02:00:19;5.90;99.90
7566;DHT22;3824;48.010;7.832;2023-02-02T02:02:52;5.00;99.90
7566;DHT22;3824;48.010;7.832;2023-02-02T02:05:23;5.00;99.90
7566;DHT22;3824;48.010;7.832;2023-02-02T02:07:54;5.00;99.90
7566;DHT22;3824;48.010;7.832;2023-02-02T02:10:22;5.00;99.90
7566;DHT22;3824;48.010;7.832;2023-02-02T02:12:49;5.00;99.90
7566;DHT22;3824;48.010;7.832;2023-02-02T02:15:15;5.00;99.90
7566;DHT22;3824;48.010;7.832;2023-02-02T02:18:09;5.00;99.90
7566;DHT22;3824;48.010;7.832;2023-02-02T02:24:19;5.00;99.90
7566;DHT22;3824;48.010;7.832;2023-02-02T02:27:50;5.00;99.90
7566;DHT22;3824;48.010;7.832;2023-02-02T02:33:20;5.00;99.90
7566;DHT22;3824;48.010;7.832;2023-02-02T02:35:56;5.00;99.90
7566;DHT22;3824;48.010;7.832;2023-02-02T02:38:34;5.00;99.90
7566;DHT22;3824;48.010;7.832;2023-02-02T02:41:04;5.00;99.90
7566;DHT22;3824;48.010;7.832;2023-02-02T02:43:38;5.00;99.90
7566;DHT22;3824;48.010;7.832;2023-02-02T02:46:07;6.50;99.90
7566;DHT22;3824;48.010;7.832;2023-02-02T02:48:36;5.00;99.90
7566;DHT22;3824;48.010;7.832;2023-02-02T02:51:07;5.50;99.90
7566;DHT22;3824;48.010;7.832;2023-02-02T02:53:35;5.10;99.90
7566;DHT22;3824;48.010;7.832;2023-02-02T02:56:11;5.10;99.90
7566;DHT22;3824;48.010;7.832;2023-02-02T02:58:45;5.00;99.90
7566;DHT22;3824;48.010;7.832;2023-02-02T03:01:20;6.10;99.90
7566;DHT22;3824;48.010;7.832;2023-02-02T03:04:04;6.70;99.90
7566;DHT22;3824;48.010;7.832;2023-02-02T03:06:38;6.40;99.90
7566;DHT22;3824;48.010;7.832;2023-02-02T03:09:10;6.00;99.90
7566;DHT22;3824;48.010;7.832;2023-02-02T03:11:39;6.30;99.90
7566;DHT22;3824;48.010;7.832;2023-02-02T03:14:06;5.10;99.90
7566;DHT22;3824;48.010;7.832;2023-02-02T03:16:34;5.10;99.90
7566;DHT22;3824;48.010;7.832;2023-02-02T03:19:03;5.10;99.90
7566;DHT22;3824;48.010;7.832;2023-02-02T03:21:31;5.10;99.90
7566;DHT22;3824;48.010;7.832;2023-02-02T03:23:58;5.60;99.90
7566;DHT22;3824;48.010;7.832;2023-02-02T03:26:25;6.00;99.90
7566;DHT22;3824;48.010;7.832;2023-02-02T03:28:54;5.70;99.90
7566;DHT22;3824;48.010;7.832;2023-02-02T03:31:22;5.10;99.90
7566;DHT22;3824;48.010;7.832;2023-02-02T03:33:49;6.60;99.90
7566;DHT22;3824;48.010;7.832;2023-02-02T03:36:17;5.10;99.90
7566;DHT22;3824;48.010;7.832;2023-02-02T03:38:44;6.30;99.90
7566;DHT22;3824;48.010;7.832;2023-02-02T03:41:10;5.10;99.90
7566;DHT22;3824;48.010;7.832;2023-02-02T03:43:37;6.10;99.90
7566;DHT22;3824;48.010;7.832;2023-02-02T03:46:05;5.10;99.90
7566;DHT22;3824;48.010;7.832;2023-02-02T03:48:34;6.10;99.90
7566;DHT22;3824;48.010;7.832;2023-02-02T03:51:07;6.60;99.90
7566;DHT22;3824;48.010;7.832;2023-02-02T03:53:35;5.10;99.90
7566;DHT22;3824;48.010;7.832;2023-02-02T03:56:03;5.40;99.90
7566;DHT22;3824;48.010;7.832;2023-02-02T03:58:30;5.10;99.90
7566;DHT22;3824;48.010;7.832;2023-02-02T04:00:58;5.10;99.90
7566;DHT22;3824;48.010;7.832;2023-02-02T04:03:27;5.10;99.90
7566;DHT22;3824;48.010;7.832;2023-02-02T04:05:54;5.10;99.90
7566;DHT22;3824;48.010;7.832;2023-02-02T04:08:21;5.10;99.90
7566;DHT22;3824;48.010;7.832;2023-02-02T04:10:49;5.10;99.90
7566;DHT22;3824;48.010;7.832;2023-02-02T04:13:16;6.00;99.90
7566;DHT22;3824;48.010;7.832;2023-02-02T04:15:43;6.40;99.90
7566;DHT22;3824;48.010;7.832;2023-02-02T04:18:09;5.10;99.90
7566;DHT22;3824;48.010;7.832;2023-02-02T04:20:36;6.20;99.90
7566;DHT22;3824;48.010;7.832;2023-02-02T04:23:03;6.00;99.90
7566;DHT22;3824;48.010;7.832;2023-02-02T04:25:30;5.10;99.90
7566;DHT22;3824;48.010;7.832;2023-02-02T04:27:58;5.10;99.90
7566;DHT22;3824;48.010;7.832;2023-02-02T04:30:25;5.30;99.90
7566;DHT22;3824;48.010;7.832;2023-02-02T04:32:51;6.20;99.90
7566;DHT22;3824;48.010;7.832;2023-02-02T04:35:18;6.10;99.90
7566;DHT22;3824;48.010;7.832;2023-02-02T04:37:48;5.10;99.90
7566;DHT22;3824;48.010;7.832;2023-02-02T04:40:15;5.10;99.90
7566;DHT22;3824;48.010;7.832;2023-02-02T04:42:41;5.10;99.90
7566;DHT22;3824;48.010;7.832;2023-02-02T04:45:11;5.10;99.90
7566;DHT22;3824;48.010;7.832;2023-02-02T04:47:38;5.10;99.90
7566;DHT22;3824;48.010;7.832;2023-02-02T04:50:06;5.10;99.90
7566;DHT22;3824;48.010;7.832;2023-02-02T04:52:33;5.10;99.90
7566;DHT22;3824;48.010;7.832;2023-02-02T04:55:00;5.10;99.90
7566;DHT22;3824;48.010;7.832;2023-02-02T04:57:26;5.10;99.90
7566;DHT22;3824;48.010;7.832;2023-02-02T04:59:53;5.20;99.90
7566;DHT22;3824;48.010;7.832;2023-02-02T05:02:21;5.10;99.90
7566;DHT22;3824;48.010;7.832;2023-02-02T05:04:48;5.20;99.90
7566;DHT22;3824;48.010;7.832;2023-02-02T05:07:15;5.50;99.90
7566;DHT22;3824;48.010;7.832;2023-02-02T05:09:42;5.20;99.90
7566;DHT22;3824;48.010;7.832;2023-02-02T05:12:09;5.20;99.90
7566;DHT22;3824;48.010;7.832;2023-02-02T05:14:35;5.20;99.90
7566;DHT22;3824;48.010;7.832;2023-02-02T05:17:02;6.90;99.90
7566;DHT22;3824;48.010;7.832;2023-02-02T05:19:30;5.20;99.90
7566;DHT22;3824;48.010;7.832;2023-02-02T05:21:57;6.00;99.90
7566;DHT22;3824;48.010;7.832;2023-02-02T05:24:24;5.20;99.90
7566;DHT22;3824;48.010;7.832;2023-02-02T05:26:52;5.20;99.90
7566;DHT22;3824;48.010;7.832;2023-02-02T05:29:22;5.20;99.90
7566;DHT22;3824;48.010;7.832;2023-02-02T05:31:50;5.20;99.90
7566;DHT22;3824;48.010;7.832;2023-02-02T05:34:16;6.70;99.90
7566;DHT22;3824;48.010;7.832;2023-02-02T05:36:45;5.10;99.90
7566;DHT22;3824;48.010;7.832;2023-02-02T05:39:12;5.20;99.90
7566;DHT22;3824;48.010;7.832;2023-02-02T05:41:39;5.20;99.90
7566;DHT22;3824;48.010;7.832;2023-02-02T05:44:06;6.80;99.90
7566;DHT22;3824;48.010;7.832;2023-02-02T05:46:32;5.10;99.90
7566;DHT22;3824;48.010;7.832;2023-02-02T05:48:59;6.80;99.90
7566;DHT22;3824;48.010;7.832;2023-02-02T05:51:32;5.10;99.90
7566;DHT22;3824;48.010;7.832;2023-02-02T05:54:01;5.20;99.90
7566;DHT22;3824;48.010;7.832;2023-02-02T05:56:27;5.10;99.90
7566;DHT22;3824;48.010;7.832;2023-02-02T05:58:54;5.10;99.90
7566;DHT22;3824;48.010;7.832;2023-02-02T06:01:21;5.20;99.90
7566;DHT22;3824;48.010;7.832;2023-02-02T06:03:50;5.10;99.90
7566;DHT22;3824;48.010;7.832;2023-02-02T06:06:17;5.10;99.90
7566;DHT22;3824;48.010;7.832;2023-02-02T06:08:44;5.20;99.90
7566;DHT22;3824;48.010;7.832;2023-02-02T06:11:13;5.20;99.90
7566;DHT22;3824;48.010;7.832;2023-02-02T06:13:40;5.10;99.90
7566;DHT22;3824;48.010;7.832;2023-02-02T06:16:07;5.20;99.90
7566;DHT22;3824;48.010;7.832;2023-02-02T06:18:35;5.80;99.90
7566;DHT22;3824;48.010;7.832;2023-02-02T06:21:03;5.60;99.90
7566;DHT22;3824;48.010;7.832;2023-02-02T06:23:32;5.20;99.90
7566;DHT22;3824;48.010;7.832;2023-02-02T06:25:59;5.20;99.90
7566;DHT22;3824;48.010;7.832;2023-02-02T06:28:29;5.20;99.90
7566;DHT22;3824;48.010;7.832;2023-02-02T06:31:01;5.20;99.90
7566;DHT22;3824;48.010;7.832;2023-02-02T06:33:28;6.70;99.90
7566;DHT22;3824;48.010;7.832;2023-02-02T06:35:58;7.00;99.90
7566;DHT22;3824;48.010;7.832;2023-02-02T06:38:24;5.20;99.90
7566;DHT22;3824;48.010;7.832;2023-02-02T06:40:51;5.20;99.90
7566;DHT22;3824;48.010;7.832;2023-02-02T06:43:18;6.30;99.90
7566;DHT22;3824;48.010;7.832;2023-02-02T06:45:46;5.20;99.90
7566;DHT22;3824;48.010;7.832;2023-02-02T06:48:13;6.10;99.90
7566;DHT22;3824;48.010;7.832;2023-02-02T06:50:40;6.10;99.90
7566;DHT22;3824;48.010;7.832;2023-02-02T06:53:07;5.50;99.90
7566;DHT22;3824;48.010;7.832;2023-02-02T06:55:33;5.20;99.90
7566;DHT22;3824;48.010;7.832;2023-02-02T06:58:01;5.30;99.90
7566;DHT22;3824;48.010;7.832;2023-02-02T07:00:28;5.20;99.90
7566;DHT22;3824;48.010;7.832;2023-02-02T07:02:57;5.30;99.90
7566;DHT22;3824;48.010;7.832;2023-02-02T07:05:24;7.20;99.90
7566;DHT22;3824;48.010;7.832;2023-02-02T07:07:52;5.30;99.90
7566;DHT22;3824;48.010;7.832;2023-02-02T07:10:19;5.30;99.90
7566;DHT22;3824;48.010;7.832;2023-02-02T07:12:46;5.30;99.90
7566;DHT22;3824;48.010;7.832;2023-02-02T07:15:13;5.30;99.90
7566;DHT22;3824;48.010;7.832;2023-02-02T07:17:39;5.30;99.90
7566;DHT22;3824;48.010;7.832;2023-02-02T07:20:09;5.30;99.90
7566;DHT22;3824;48.010;7.832;2023-02-02T07:22:37;5.30;99.90
7566;DHT22;3824;48.010;7.832;2023-02-02T07:25:05;5.30;99.90
7566;DHT22;3824;48.010;7.832;2023-02-02T07:27:32;5.30;99.90
7566;DHT22;3824;48.010;7.832;2023-02-02T07:29:58;5.40;99.90
7566;DHT22;3824;48.010;7.832;2023-02-02T07:32:25;5.40;99.90
7566;DHT22;3824;48.010;7.832;2023-02-02T07:34:52;5.40;99.90
7566;DHT22;3824;48.010;7.832;2023-02-02T07:37:20;5.40;99.90
7566;DHT22;3824;48.010;7.832;2023-02-02T07:39:47;6.30;99.90
7566;DHT22;3824;48.010;7.832;2023-02-02T07:42:14;5.40;99.90
7566;DHT22;3824;48.010;7.832;2023-02-02T07:44:41;5.40;99.90
7566;DHT22;3824;48.010;7.832;2023-02-02T07:47:08;5.40;99.90
7566;DHT22;3824;48.010;7.832;2023-02-02T07:49:34;5.40;99.90
7566;DHT22;3824;48.010;7.832;2023-02-02T07:52:01;5.80;99.90
7566;DHT22;3824;48.010;7.832;2023-02-02T07:54:32;5.40;99.90
7566;DHT22;3824;48.010;7.832;2023-02-02T07:56:59;5.60;99.90
7566;DHT22;3824;48.010;7.832;2023-02-02T07:59:26;5.40;99.90
7566;DHT22;3824;48.010;7.832;2023-02-02T08:01:53;5.40;99.90
7566;DHT22;3824;48.010;7.832;2023-02-02T08:04:20;5.40;99.90
7566;DHT22;3824;48.010;7.832;2023-02-02T08:06:47;5.50;99.90
7566;DHT22;3824;48.010;7.832;2023-02-02T08:09:14;5.50;99.90
7566;DHT22;3824;48.010;7.832;2023-02-02T08:11:42;5.50;99.90
7566;DHT22;3824;48.010;7.832;2023-02-02T08:14:11;5.60;99.90
7566;DHT22;3824;48.010;7.832;2023-02-02T08:16:38;5.60;99.90
7566;DHT22;3824;48.010;7.832;2023-02-02T08:19:05;5.60;99.90
7566;DHT22;3824;48.010;7.832;2023-02-02T08:21:32;5.80;99.90
7566;DHT22;3824;48.010;7.832;2023-02-02T08:23:59;5.70;99.90
7566;DHT22;3824;48.010;7.832;2023-02-02T08:26:28;5.70;99.90
7566;DHT22;3824;48.010;7.832;2023-02-02T08:28:58;5.70;99.90
7566;DHT22;3824;48.010;7.832;2023-02-02T08:31:28;6.10;99.90
7566;DHT22;3824;48.010;7.832;2023-02-02T08:33:56;5.70;99.90
7566;DHT22;3824;48.010;7.832;2023-02-02T08:36:25;5.80;99.90
7566;DHT22;3824;48.010;7.832;2023-02-02T08:38:52;5.80;99.90
7566;DHT22;3824;48.010;7.832;2023-02-02T08:41:21;7.10;99.90
7566;DHT22;3824;48.010;7.832;2023-02-02T08:43:49;5.90;99.90
7566;DHT22;3824;48.010;7.832;2023-02-02T08:46:19;6.00;99.90
7566;DHT22;3824;48.010;7.832;2023-02-02T08:48:46;6.00;99.90
7566;DHT22;3824;48.010;7.832;2023-02-02T08:51:15;6.10;99.90
7566;DHT22;3824;48.010;7.832;2023-02-02T08:53:43;7.60;99.90
7566;DHT22;3824;48.010;7.832;2023-02-02T08:56:12;6.10;99.90
7566;DHT22;3824;48.010;7.832;2023-02-02T08:58:42;6.10;99.90
7566;DHT22;3824;48.010;7.832;2023-02-02T09:01:13;6.20;99.90
7566;DHT22;3824;48.010;7.832;2023-02-02T09:03:44;6.20;99.90
7566;DHT22;3824;48.010;7.832;2023-02-02T09:06:13;6.30;99.90
7566;DHT22;3824;48.010;7.832;2023-02-02T09:08:40;6.30;99.90
7566;DHT22;3824;48.010;7.832;2023-02-02T09:11:09;6.30;99.90
7566;DHT22;3824;48.010;7.832;2023-02-02T09:13:36;6.30;99.90
7566;DHT22;3824;48.010;7.832;2023-02-02T09:16:06;6.40;99.90
7566;DHT22;3824;48.010;7.832;2023-02-02T09:18:35;6.40;99.90
7566;DHT22;3824;48.010;7.832;2023-02-02T09:21:05;6.40;99.90
7566;DHT22;3824;48.010;7.832;2023-02-02T09:23:33;6.40;99.90
7566;DHT22;3824;48.010;7.832;2023-02-02T09:26:08;6.50;99.90
7566;DHT22;3824;48.010;7.832;2023-02-02T09:28:36;6.50;99.90
7566;DHT22;3824;48.010;7.832;2023-02-02T09:31:03;6.50;99.90
7566;DHT22;3824;48.010;7.832;2023-02-02T09:33:30;6.50;99.90
7566;DHT22;3824;48.010;7.832;2023-02-02T09:36:04;6.50;99.90
7566;DHT22;3824;48.010;7.832;2023-02-02T09:38:31;6.50;99.90
7566;DHT22;3824;48.010;7.832;2023-02-02T09:40:58;6.40;99.90
7566;DHT22;3824;48.010;7.832;2023-02-02T09:43:35;6.50;99.90
7566;DHT22;3824;48.010;7.832;2023-02-02T09:46:08;6.50;99.90
7566;DHT22;3824;48.010;7.832;2023-02-02T09:48:43;6.50;99.90
7566;DHT22;3824;48.010;7.832;2023-02-02T09:51:16;6.50;99.90
7566;DHT22;3824;48.010;7.832;2023-02-02T09:53:47;6.50;99.90
7566;DHT22;3824;48.010;7.832;2023-02-02T09:56:22;6.50;99.90
7566;DHT22;3824;48.010;7.832;2023-02-02T09:58:51;6.50;99.90
7566;DHT22;3824;48.010;7.832;2023-02-02T10:01:21;6.50;99.90
7566;DHT22;3824;48.010;7.832;2023-02-02T10:03:57;6.50;99.90
7566;DHT22;3824;48.010;7.832;2023-02-02T10:06:33;6.50;99.90
7566;DHT22;3824;48.010;7.832;2023-02-02T10:09:07;6.60;99.90
7566;DHT22;3824;48.010;7.832;2023-02-02T10:11:44;6.60;99.90
7566;DHT22;3824;48.010;7.832;2023-02-02T10:14:18;6.60;99.90
7566;DHT22;3824;48.010;7.832;2023-02-02T10:16:47;6.70;99.90
7566;DHT22;3824;48.010;7.832;2023-02-02T10:19:15;6.70;99.90
7566;DHT22;3824;48.010;7.832;2023-02-02T10:21:53;6.90;99.90
7566;DHT22;3824;48.010;7.832;2023-02-02T10:24:23;6.70;99.90
7566;DHT22;3824;48.010;7.832;2023-02-02T10:26:53;6.70;99.90
7566;DHT22;3824;48.010;7.832;2023-02-02T10:29:31;6.60;99.90
7566;DHT22;3824;48.010;7.832;2023-02-02T10:32:10;6.60;99.90
7566;DHT22;3824;48.010;7.832;2023-02-02T10:34:42;7.90;99.90
7566;DHT22;3824;48.010;7.832;2023-02-02T10:37:20;6.60;99.90
7566;DHT22;3824;48.010;7.832;2023-02-02T10:39:56;6.50;99.90
7566;DHT22;3824;48.010;7.832;2023-02-02T10:42:34;6.60;99.90
7566;DHT22;3824;48.010;7.832;2023-02-02T10:45:11;6.60;99.90
7566;DHT22;3824;48.010;7.832;2023-02-02T10:47:38;6.70;99.90
7566;DHT22;3824;48.010;7.832;2023-02-02T10:50:16;6.70;99.90
7566;DHT22;3824;48.010;7.832;2023-02-02T10:52:47;6.70;99.90
7566;DHT22;3824;48.010;7.832;2023-02-02T10:55:22;6.70;99.90
7566;DHT22;3824;48.010;7.832;2023-02-02T10:57:56;6.70;99.90
7566;DHT22;3824;48.010;7.832;2023-02-02T11:00:33;6.70;99.90
7566;DHT22;3824;48.010;7.832;2023-02-02T11:03:01;6.70;99.90
7566;DHT22;3824;48.010;7.832;2023-02-02T11:05:30;6.70;99.90
7566;DHT22;3824;48.010;7.832;2023-02-02T11:08:17;6.70;99.90
7566;DHT22;3824;48.010;7.832;2023-02-02T11:10:46;6.60;99.90
7566;DHT22;3824;48.010;7.832;2023-02-02T11:13:23;6.60;99.90
7566;DHT22;3824;48.010;7.832;2023-02-02T11:16:17;6.60;99.90
7566;DHT22;3824;48.010;7.832;2023-02-02T11:18:45;6.60;99.90
7566;DHT22;3824;48.010;7.832;2023-02-02T11:21:18;6.60;99.90
7566;DHT22;3824;48.010;7.832;2023-02-02T11:23:52;6.70;99.90
7566;DHT22;3824;48.010;7.832;2023-02-02T11:26:21;6.60;99.90
7566;DHT22;3824;48.010;7.832;2023-02-02T11:28:49;6.70;99.90
7566;DHT22;3824;48.010;7.832;2023-02-02T11:31:33;6.70;99.90
7566;DHT22;3824;48.010;7.832;2023-02-02T11:34:18;6.70;99.90
7566;DHT22;3824;48.010;7.832;2023-02-02T11:37:00;6.80;99.90
7566;DHT22;3824;48.010;7.832;2023-02-02T11:39:29;6.90;99.90
7566;DHT22;3824;48.010;7.832;2023-02-02T11:42:04;6.90;99.90
7566;DHT22;3824;48.010;7.832;2023-02-02T11:44:32;7.00;99.90
7566;DHT22;3824;48.010;7.832;2023-02-02T11:47:02;7.20;99.90
7566;DHT22;3824;48.010;7.832;2023-02-02T11:49:31;7.00;99.90
7566;DHT22;3824;48.010;7.832;2023-02-02T11:52:00;7.00;99.90
7566;DHT22;3824;48.010;7.832;2023-02-02T11:54:31;7.00;99.90
7566;DHT22;3824;48.010;7.832;2023-02-02T11:57:00;7.00;99.90
7566;DHT22;3824;48.010;7.832;2023-02-02T11:59:31;7.00;99.90
7566;DHT22;3824;48.010;7.832;2023-02-02T12:05:13;7.00;99.90
7566;DHT22;3824;48.010;7.832;2023-02-02T12:07:41;7.00;99.90
7566;DHT22;3824;48.010;7.832;2023-02-02T12:10:17;7.00;99.90
7566;DHT22;3824;48.010;7.832;2023-02-02T12:12:52;7.00;99.90
7566;DHT22;3824;48.010;7.832;2023-02-02T12:15:29;7.00;99.90
7566;DHT22;3824;48.010;7.832;2023-02-02T12:18:06;7.00;99.90
7566;DHT22;3824;48.010;7.832;2023-02-02T12:20:42;6.90;99.90
7566;DHT22;3824;48.010;7.832;2023-02-02T12:23:22;6.90;99.90
7566;DHT22;3824;48.010;7.832;2023-02-02T12:26:06;6.90;99.90
7566;DHT22;3824;48.010;7.832;2023-02-02T12:28:58;6.90;99.90
7566;DHT22;3824;48.010;7.832;2023-02-02T12:31:36;6.90;99.90
7566;DHT22;3824;48.010;7.832;2023-02-02T12:34:16;6.90;99.90
7566;DHT22;3824;48.010;7.832;2023-02-02T12:36:51;6.90;99.90
7566;DHT22;3824;48.010;7.832;2023-02-02T12:39:26;6.90;99.90
7566;DHT22;3824;48.010;7.832;2023-02-02T12:45:26;6.90;99.90
7566;DHT22;3824;48.010;7.832;2023-02-02T12:48:08;6.80;99.90
7566;DHT22;3824;48.010;7.832;2023-02-02T12:50:39;6.80;99.90
7566;DHT22;3824;48.010;7.832;2023-02-02T12:53:19;6.80;99.90
7566;DHT22;3824;48.010;7.832;2023-02-02T12:55:54;6.80;99.90
7566;DHT22;3824;48.010;7.832;2023-02-02T12:58:29;6.80;99.90
7566;DHT22;3824;48.010;7.832;2023-02-02T13:01:17;6.90;99.90
7566;DHT22;3824;48.010;7.832;2023-02-02T13:03:58;6.80;99.90
7566;DHT22;3824;48.010;7.832;2023-02-02T13:06:49;6.80;99.90
7566;DHT22;3824;48.010;7.832;2023-02-02T13:09:23;6.80;99.90
7566;DHT22;3824;48.010;7.832;2023-02-02T13:11:55;6.80;99.90
7566;DHT22;3824;48.010;7.832;2023-02-02T13:14:30;6.80;99.90
7566;DHT22;3824;48.010;7.832;2023-02-02T13:17:01;6.70;99.90
7566;DHT22;3824;48.010;7.832;2023-02-02T13:19:35;6.70;99.90
7566;DHT22;3824;48.010;7.832;2023-02-02T13:22:05;6.70;99.90
7566;DHT22;3824;48.010;7.832;2023-02-02T13:24:35;6.70;99.90
7566;DHT22;3824;48.010;7.832;2023-02-02T13:27:04;6.70;99.90
7566;DHT22;3824;48.010;7.832;2023-02-02T13:29:38;6.70;99.90
7566;DHT22;3824;48.010;7.832;2023-02-02T13:32:16;6.70;99.90
7566;DHT22;3824;48.010;7.832;2023-02-02T13:34:47;6.70;99.90
7566;DHT22;3824;48.010;7.832;2023-02-02T13:37:19;6.70;99.90
7566;DHT22;3824;48.010;7.832;2023-02-02T13:39:54;6.70;99.90
7566;DHT22;3824;48.010;7.832;2023-02-02T13:42:28;6.70;99.90
7566;DHT22;3824;48.010;7.832;2023-02-02T13:45:02;6.80;99.90
7566;DHT22;3824;48.010;7.832;2023-02-02T13:47:37;6.70;99.90
7566;DHT22;3824;48.010;7.832;2023-02-02T13:50:12;6.70;99.90
7566;DHT22;3824;48.010;7.832;2023-02-02T13:52:52;6.80;99.90
7566;DHT22;3824;48.010;7.832;2023-02-02T13:55:48;6.80;99.90
7566;DHT22;3824;48.010;7.832;2023-02-02T13:58:34;6.70;99.90
7566;DHT22;3824;48.010;7.832;2023-02-02T14:01:06;6.70;99.90
7566;DHT22;3824;48.010;7.832;2023-02-02T14:03:36;6.70;99.90
7566;DHT22;3824;48.010;7.832;2023-02-02T14:06:07;6.70;99.90
7566;DHT22;3824;48.010;7.832;2023-02-02T14:08:35;6.70;99.90
7566;DHT22;3824;48.010;7.832;2023-02-02T14:11:04;6.70;99.90
7566;DHT22;3824;48.010;7.832;2023-02-02T14:13:40;6.60;99.90
7566;DHT22;3824;48.010;7.832;2023-02-02T14:16:43;6.60;99.90
7566;DHT22;3824;48.010;7.832;2023-02-02T14:19:14;6.60;99.90
7566;DHT22;3824;48.010;7.832;2023-02-02T14:22:01;6.50;99.90
7566;DHT22;3824;48.010;7.832;2023-02-02T14:24:41;6.50;99.90
7566;DHT22;3824;48.010;7.832;2023-02-02T14:27:52;6.40;99.90
7566;DHT22;3824;48.010;7.832;2023-02-02T14:30:31;6.40;99.90
7566;DHT22;3824;48.010;7.832;2023-02-02T14:36:16;6.40;99.90
7566;DHT22;3824;48.010;7.832;2023-02-02T14:39:13;6.30;99.90
7566;DHT22;3824;48.010;7.832;2023-02-02T14:42:03;6.40;99.90
7566;DHT22;3824;48.010;7.832;2023-02-02T14:45:22;6.40;99.90
7566;DHT22;3824;48.010;7.832;2023-02-02T14:47:52;6.40;99.90
7566;DHT22;3824;48.010;7.832;2023-02-02T14:50:42;6.40;99.90
7566;DHT22;3824;48.010;7.832;2023-02-02T14:53:20;6.40;99.90
7566;DHT22;3824;48.010;7.832;2023-02-02T14:55:57;6.50;99.90
7566;DHT22;3824;48.010;7.832;2023-02-02T14:58:29;6.50;99.90
7566;DHT22;3824;48.010;7.832;2023-02-02T15:01:09;6.50;99.90
7566;DHT22;3824;48.010;7.832;2023-02-02T15:03:49;6.60;99.90
7566;DHT22;3824;48.010;7.832;2023-02-02T15:06:27;6.70;99.90
7566;DHT22;3824;48.010;7.832;2023-02-02T15:09:31;6.70;99.90
7566;DHT22;3824;48.010;7.832;2023-02-02T15:12:22;6.70;99.90
7566;DHT22;3824;48.010;7.832;2023-02-02T15:14:55;6.70;99.90
7566;DHT22;3824;48.010;7.832;2023-02-02T15:17:27;6.70;99.90
7566;DHT22;3824;48.010;7.832;2023-02-02T15:20:10;7.80;99.90
7566;DHT22;3824;48.010;7.832;2023-02-02T15:22:44;6.80;99.90
7566;DHT22;3824;48.010;7.832;2023-02-02T15:25:18;6.80;99.90
7566;DHT22;3824;48.010;7.832;2023-02-02T15:27:55;6.80;99.90
7566;DHT22;3824;48.010;7.832;2023-02-02T15:30:23;6.80;99.90
7566;DHT22;3824;48.010;7.832;2023-02-02T15:32:52;6.80;99.90
7566;DHT22;3824;48.010;7.832;2023-02-02T15:35:23;6.80;99.90
7566;DHT22;3824;48.010;7.832;2023-02-02T15:37:58;6.90;99.90
7566;DHT22;3824;48.010;7.832;2023-02-02T15:40:29;6.80;99.90
7566;DHT22;3824;48.010;7.832;2023-02-02T15:42:59;6.80;99.90
7566;DHT22;3824;48.010;7.832;2023-02-02T15:45:33;6.90;99.90
7566;DHT22;3824;48.010;7.832;2023-02-02T15:48:06;6.90;99.90
7566;DHT22;3824;48.010;7.832;2023-02-02T15:50:34;6.90;99.90
7566;DHT22;3824;48.010;7.832;2023-02-02T15:53:01;8.50;99.90
7566;DHT22;3824;48.010;7.832;2023-02-02T15:55:32;6.90;99.90
7566;DHT22;3824;48.010;7.832;2023-02-02T15:57:59;6.90;99.90
7566;DHT22;3824;48.010;7.832;2023-02-02T16:00:30;6.90;99.90
7566;DHT22;3824;48.010;7.832;2023-02-02T16:03:00;6.90;99.90
7566;DHT22;3824;48.010;7.832;2023-02-02T16:05:42;7.00;99.90
7566;DHT22;3824;48.010;7.832;2023-02-02T16:08:16;6.90;99.90
7566;DHT22;3824;48.010;7.832;2023-02-02T16:10:45;6.90;99.90
7566;DHT22;3824;48.010;7.832;2023-02-02T16:13:25;7.70;99.90
7566;DHT22;3824;48.010;7.832;2023-02-02T16:15:57;6.90;99.90
7566;DHT22;3824;48.010;7.832;2023-02-02T16:18:24;6.90;99.90
7566;DHT22;3824;48.010;7.832;2023-02-02T16:20:52;6.90;99.90
7566;DHT22;3824;48.010;7.832;2023-02-02T16:23:22;6.90;99.90
7566;DHT22;3824;48.010;7.832;2023-02-02T16:25:54;6.90;99.90
7566;DHT22;3824;48.010;7.832;2023-02-02T16:28:23;6.90;99.90
7566;DHT22;3824;48.010;7.832;2023-02-02T16:30:51;7.00;99.90
7566;DHT22;3824;48.010;7.832;2023-02-02T16:33:31;7.00;99.90
7566;DHT22;3824;48.010;7.832;2023-02-02T16:35:59;7.00;99.90
7566;DHT22;3824;48.010;7.832;2023-02-02T16:38:31;7.00;99.90
7566;DHT22;3824;48.010;7.832;2023-02-02T16:41:07;7.00;99.90
7566;DHT22;3824;48.010;7.832;2023-02-02T16:43:35;7.00;99.90
7566;DHT22;3824;48.010;7.832;2023-02-02T16:46:04;7.10;99.90
7566;DHT22;3824;48.010;7.832;2023-02-02T16:48:34;7.00;99.90
7566;DHT22;3824;48.010;7.832;2023-02-02T16:51:21;7.10;99.90
7566;DHT22;3824;48.010;7.832;2023-02-02T16:53:56;7.00;99.90
7566;DHT22;3824;48.010;7.832;2023-02-02T16:56:29;7.10;99.90
7566;DHT22;3824;48.010;7.832;2023-02-02T16:58:58;7.00;99.90
7566;DHT22;3824;48.010;7.832;2023-02-02T17:01:34;7.20;99.90